sensor_id;sensor_type;location;lat;lon;timestamp;pressure;altitude;pressure_sealevel;temperature;humidity
69574;BME280;62840;52.366;5.980;2023-01-28T00:02:06;102925.13;;;3.51;68.99
69574;BME280;62840;52.366;5.980;2023-01-28T00:04:31;102913.75;;;3.49;69.02
69574;BME280;62840;52.366;5.980;2023-01-28T00:07:00;102919.94;;;3.48;69.18
69574;BME280;62840;52.366;5.980;2023-01-28T00:09:26;102918.16;;;3.47;69.13
69574;BME280;62840;52.366;5.980;2023-01-28T00:11:51;102919.09;;;3.46;69.15
69574;BME280;62840;52.366;5.980;2023-01-28T00:14:17;102915.59;;;3.44;69.21
69574;BME280;62840;52.366;5.980;2023-01-28T00:16:43;102914.69;;;3.45;69.08
69574;BME280;62840;52.366;5.980;2023-01-28T00:19:09;102925.25;;;3.45;69.18
69574;BME280;62840;52.366;5.980;2023-01-28T00:21:35;102915.56;;;3.46;69.00
69574;BME280;62840;52.366;5.980;2023-01-28T00:24:03;102921.72;;;3.46;68.95
69574;BME280;62840;52.366;5.980;2023-01-28T00:26:30;102919.97;;;3.45;69.00
69574;BME280;62840;52.366;5.980;2023-01-28T00:28:55;102920.91;;;3.43;68.78
69574;BME280;62840;52.366;5.980;2023-01-28T00:31:22;102935.88;;;3.42;69.08
69574;BME280;62840;52.366;5.980;2023-01-28T00:33:50;102935.88;;;3.42;69.37
69574;BME280;62840;52.366;5.980;2023-01-28T00:36:17;102939.38;;;3.41;69.19
69574;BME280;62840;52.366;5.980;2023-01-28T00:38:48;102937.66;;;3.40;69.30
69574;BME280;62840;52.366;5.980;2023-01-28T00:41:19;102927.97;;;3.41;69.21
69574;BME280;62840;52.366;5.980;2023-01-28T00:43:47;102921.84;;;3.40;69.04
69574;BME280;62840;52.366;5.980;2023-01-28T00:46:13;102925.38;;;3.39;69.19
69574;BME280;62840;52.366;5.980;2023-01-28T00:48:41;102920.09;;;3.39;69.20
69574;BME280;62840;52.366;5.980;2023-01-28T00:51:09;102925.38;;;3.39;69.33
69574;BME280;62840;52.366;5.980;2023-01-28T00:53:40;102921.84;;;3.40;69.49
69574;BME280;62840;52.366;5.980;2023-01-28T00:56:07;102922.75;;;3.37;69.43
69574;BME280;62840;52.366;5.980;2023-01-28T00:58:39;102919.22;;;3.38;69.44
69574;BME280;62840;52.366;5.980;2023-01-28T01:01:07;102917.47;;;3.39;69.57
69574;BME280;62840;52.366;5.980;2023-01-28T01:03:34;102914.84;;;3.39;69.62
69574;BME280;62840;52.366;5.980;2023-01-28T01:05:59;102910.41;;;3.40;69.44
69574;BME280;62840;52.366;5.980;2023-01-28T01:08:25;102916.56;;;3.40;69.50
69574;BME280;62840;52.366;5.980;2023-01-28T01:10:51;102910.41;;;3.40;69.40
69574;BME280;62840;52.366;5.980;2023-01-28T01:13:17;102916.63;;;3.37;69.11
69574;BME280;62840;52.366;5.980;2023-01-28T01:15:45;102920.16;;;3.36;69.29
69574;BME280;62840;52.366;5.980;2023-01-28T01:18:11;102912.25;;;3.34;69.26
69574;BME280;62840;52.366;5.980;2023-01-28T01:20:36;102914.88;;;3.36;69.12
69574;BME280;62840;52.366;5.980;2023-01-28T01:23:02;102918.41;;;3.35;69.40
69574;BME280;62840;52.366;5.980;2023-01-28T01:25:28;102917.53;;;3.34;69.35
69574;BME280;62840;52.366;5.980;2023-01-28T01:27:54;102918.41;;;3.35;69.48
69574;BME280;62840;52.366;5.980;2023-01-28T01:30:19;102912.31;;;3.31;69.50
69574;BME280;62840;52.366;5.980;2023-01-28T01:32:48;102925.53;;;3.30;69.36
69574;BME280;62840;52.366;5.980;2023-01-28T01:35:14;102925.53;;;3.30;69.37
69574;BME280;62840;52.366;5.980;2023-01-28T01:37:42;102922.88;;;3.30;69.65
69574;BME280;62840;52.366;5.980;2023-01-28T01:40:10;102921.16;;;3.30;69.55
69574;BME280;62840;52.366;5.980;2023-01-28T01:42:36;102936.06;;;3.30;69.70
69574;BME280;62840;52.366;5.980;2023-01-28T01:45:03;102936.06;;;3.30;69.74
69574;BME280;62840;52.366;5.980;2023-01-28T01:47:37;102936.06;;;3.30;69.61
69574;BME280;62840;52.366;5.980;2023-01-28T01:50:17;102937.00;;;3.29;69.41
69574;BME280;62840;52.366;5.980;2023-01-28T01:52:53;102937.88;;;3.28;69.69
69574;BME280;62840;52.366;5.980;2023-01-28T01:55:23;102940.50;;;3.28;69.59
69574;BME280;62840;52.366;5.980;2023-01-28T01:57:54;102938.78;;;3.27;69.59
69574;BME280;62840;52.366;5.980;2023-01-28T02:00:23;102939.72;;;3.24;69.47
69574;BME280;62840;52.366;5.980;2023-01-28T02:02:49;102942.38;;;3.23;69.84
69574;BME280;62840;52.366;5.980;2023-01-28T02:05:21;102948.56;;;3.22;70.00
69574;BME280;62840;52.366;5.980;2023-01-28T02:07:49;102945.94;;;3.20;69.72
69574;BME280;62840;52.366;5.980;2023-01-28T02:10:17;102946.78;;;3.21;69.82
69574;BME280;62840;52.366;5.980;2023-01-28T02:12:46;102947.69;;;3.20;69.65
69574;BME280;62840;52.366;5.980;2023-01-28T02:15:18;102949.47;;;3.19;69.32
69574;BME280;62840;52.366;5.980;2023-01-28T02:17:49;102953.84;;;3.18;69.59
69574;BME280;62840;52.366;5.980;2023-01-28T02:20:21;102959.13;;;3.18;69.50
69574;BME280;62840;52.366;5.980;2023-01-28T02:23:10;102956.47;;;3.20;69.82
69574;BME280;62840;52.366;5.980;2023-01-28T02:26:31;102952.06;;;3.21;69.71
69574;BME280;62840;52.366;5.980;2023-01-28T02:29:21;102954.75;;;3.19;69.52
69574;BME280;62840;52.366;5.980;2023-01-28T02:31:53;102945.09;;;3.16;69.72
69574;BME280;62840;52.366;5.980;2023-01-28T02:34:33;102950.38;;;3.16;69.64
69574;BME280;62840;52.366;5.980;2023-01-28T02:37:07;102953.91;;;3.15;69.84
69574;BME280;62840;52.366;5.980;2023-01-28T02:39:47;102952.22;;;3.13;69.39
69574;BME280;62840;52.366;5.980;2023-01-28T02:42:18;102949.56;;;3.13;69.65
69574;BME280;62840;52.366;5.980;2023-01-28T02:44:50;102954.00;;;3.12;69.39
69574;BME280;62840;52.366;5.980;2023-01-28T02:47:15;102957.47;;;3.14;69.31
69574;BME280;62840;52.366;5.980;2023-01-28T02:49:44;102957.47;;;3.14;69.26
69574;BME280;62840;52.366;5.980;2023-01-28T02:52:27;102957.47;;;3.13;69.13
69574;BME280;62840;52.366;5.980;2023-01-28T02:55:02;102959.28;;;3.11;68.94
69574;BME280;62840;52.366;5.980;2023-01-28T02:57:42;102947.88;;;3.09;69.10
69574;BME280;62840;52.366;5.980;2023-01-28T03:00:25;102953.16;;;3.09;69.02
69574;BME280;62840;52.366;5.980;2023-01-28T03:03:07;102954.94;;;3.08;69.15
69574;BME280;62840;52.366;5.980;2023-01-28T03:05:43;102940.00;;;3.07;69.24
69574;BME280;62840;52.366;5.980;2023-01-28T03:08:14;102944.41;;;3.07;69.06
69574;BME280;62840;52.366;5.980;2023-01-28T03:10:41;102947.94;;;3.06;69.23
69574;BME280;62840;52.366;5.980;2023-01-28T03:13:07;102945.25;;;3.07;68.99
69574;BME280;62840;52.366;5.980;2023-01-28T03:15:38;102937.41;;;3.06;68.95
69574;BME280;62840;52.366;5.980;2023-01-28T03:18:10;102934.72;;;3.07;69.07
69574;BME280;62840;52.366;5.980;2023-01-28T03:20:46;102938.25;;;3.06;68.87
69574;BME280;62840;52.366;5.980;2023-01-28T03:23:21;102930.38;;;3.05;69.06
69574;BME280;62840;52.366;5.980;2023-01-28T03:25:54;102935.69;;;3.03;69.02
69574;BME280;62840;52.366;5.980;2023-01-28T03:28:25;102938.34;;;3.03;69.03
69574;BME280;62840;52.366;5.980;2023-01-28T03:31:01;102940.06;;;3.04;69.08
69574;BME280;62840;52.366;5.980;2023-01-28T03:33:32;102940.06;;;3.04;68.99
69574;BME280;62840;52.366;5.980;2023-01-28T03:36:01;102936.56;;;3.02;68.98
69574;BME280;62840;52.366;5.980;2023-01-28T03:38:28;102943.63;;;3.02;68.70
69574;BME280;62840;52.366;5.980;2023-01-28T03:40:55;102953.31;;;3.00;68.69
69574;BME280;62840;52.366;5.980;2023-01-28T03:43:23;102947.22;;;2.96;68.62
69574;BME280;62840;52.366;5.980;2023-01-28T03:45:49;102950.75;;;2.95;68.76
69574;BME280;62840;52.366;5.980;2023-01-28T03:48:18;102949.00;;;2.94;68.70
69574;BME280;62840;52.366;5.980;2023-01-28T03:50:44;102945.56;;;2.92;68.50
69574;BME280;62840;52.366;5.980;2023-01-28T03:53:10;102947.28;;;2.93;68.47
69574;BME280;62840;52.366;5.980;2023-01-28T03:55:36;102956.09;;;2.92;68.52
69574;BME280;62840;52.366;5.980;2023-01-28T03:58:02;102960.50;;;2.90;68.29
69574;BME280;62840;52.366;5.980;2023-01-28T04:00:28;102955.31;;;2.85;67.97
69574;BME280;62840;52.366;5.980;2023-01-28T04:02:53;102950.06;;;2.84;67.78
69574;BME280;62840;52.366;5.980;2023-01-28T04:05:22;102949.22;;;2.82;67.91
69574;BME280;62840;52.366;5.980;2023-01-28T04:07:48;102949.22;;;2.82;68.00
69574;BME280;62840;52.366;5.980;2023-01-28T04:10:14;102946.59;;;2.82;67.91
69574;BME280;62840;52.366;5.980;2023-01-28T04:12:40;102948.34;;;2.81;67.63
69574;BME280;62840;52.366;5.980;2023-01-28T04:15:07;102951.00;;;2.80;67.94
69574;BME280;62840;52.366;5.980;2023-01-28T04:17:33;102950.16;;;2.78;68.14
69574;BME280;62840;52.366;5.980;2023-01-28T04:19:59;102961.53;;;2.80;68.01
69574;BME280;62840;52.366;5.980;2023-01-28T04:22:30;102964.19;;;2.78;67.70
69574;BME280;62840;52.366;5.980;2023-01-28T04:24:55;102977.41;;;2.77;68.32
69574;BME280;62840;52.366;5.980;2023-01-28T04:27:21;102980.94;;;2.75;68.23
69574;BME280;62840;52.366;5.980;2023-01-28T04:29:47;102974.78;;;2.77;68.52
69574;BME280;62840;52.366;5.980;2023-01-28T04:32:13;102977.41;;;2.77;68.47
69574;BME280;62840;52.366;5.980;2023-01-28T04:34:38;102979.19;;;2.74;68.44
69574;BME280;62840;52.366;5.980;2023-01-28T04:37:04;102986.19;;;2.75;68.38
69574;BME280;62840;52.366;5.980;2023-01-28T04:39:32;102994.09;;;2.75;68.39
69574;BME280;62840;52.366;5.980;2023-01-28T04:41:58;102990.59;;;2.75;68.64
69574;BME280;62840;52.366;5.980;2023-01-28T04:44:24;102986.25;;;2.72;68.29
69574;BME280;62840;52.366;5.980;2023-01-28T04:46:49;102988.91;;;2.71;68.13
69574;BME280;62840;52.366;5.980;2023-01-28T04:49:15;102990.69;;;2.70;68.13
69574;BME280;62840;52.366;5.980;2023-01-28T04:51:41;102981.03;;;2.69;68.12
69574;BME280;62840;52.366;5.980;2023-01-28T04:54:07;102969.66;;;2.67;68.18
69574;BME280;62840;52.366;5.980;2023-01-28T04:56:35;102975.78;;;2.68;68.03
69574;BME280;62840;52.366;5.980;2023-01-28T04:59:01;102975.81;;;2.66;68.10
69574;BME280;62840;52.366;5.980;2023-01-28T05:01:27;102972.28;;;2.67;68.58
69574;BME280;62840;52.366;5.980;2023-01-28T05:03:53;102961.75;;;2.67;68.41
69574;BME280;62840;52.366;5.980;2023-01-28T05:06:19;102967.03;;;2.67;68.32
69574;BME280;62840;52.366;5.980;2023-01-28T05:08:45;102964.38;;;2.67;68.38
69574;BME280;62840;52.366;5.980;2023-01-28T05:11:10;102960.00;;;2.66;68.66
69574;BME280;62840;52.366;5.980;2023-01-28T05:13:39;102953.84;;;2.67;68.43
69574;BME280;62840;52.366;5.980;2023-01-28T05:16:05;102952.94;;;2.68;68.56
69574;BME280;62840;52.366;5.980;2023-01-28T05:18:31;102949.47;;;2.66;68.50
69574;BME280;62840;52.366;5.980;2023-01-28T05:20:57;102951.22;;;2.67;68.35
69574;BME280;62840;52.366;5.980;2023-01-28T05:23:23;102957.34;;;2.66;68.54
69574;BME280;62840;52.366;5.980;2023-01-28T05:25:49;102952.94;;;2.68;68.63
69574;BME280;62840;52.366;5.980;2023-01-28T05:28:15;102947.72;;;2.65;68.57
69574;BME280;62840;52.366;5.980;2023-01-28T05:30:43;102942.50;;;2.62;68.65
69574;BME280;62840;52.366;5.980;2023-01-28T05:33:09;102956.59;;;2.60;68.21
69574;BME280;62840;52.366;5.980;2023-01-28T05:35:35;102968.03;;;2.57;68.21
69574;BME280;62840;52.366;5.980;2023-01-28T05:38:00;102961.91;;;2.55;68.27
69574;BME280;62840;52.366;5.980;2023-01-28T05:40:26;102965.41;;;2.57;68.67
69574;BME280;62840;52.366;5.980;2023-01-28T05:42:52;102965.41;;;2.57;68.40
69574;BME280;62840;52.366;5.980;2023-01-28T05:45:18;102967.16;;;2.58;68.54
69574;BME280;62840;52.366;5.980;2023-01-28T05:47:46;102965.41;;;2.57;68.98
69574;BME280;62840;52.366;5.980;2023-01-28T05:50:13;102966.25;;;2.59;68.74
69574;BME280;62840;52.366;5.980;2023-01-28T05:52:39;102963.69;;;2.56;68.59
69574;BME280;62840;52.366;5.980;2023-01-28T05:55:06;102961.91;;;2.55;68.69
69574;BME280;62840;52.366;5.980;2023-01-28T05:57:33;102957.50;;;2.55;68.96
69574;BME280;62840;52.366;5.980;2023-01-28T05:59:59;102953.13;;;2.56;68.96
69574;BME280;62840;52.366;5.980;2023-01-28T06:02:24;102960.13;;;2.57;68.92
69574;BME280;62840;52.366;5.980;2023-01-28T06:04:53;102956.63;;;2.58;68.95
69574;BME280;62840;52.366;5.980;2023-01-28T06:07:19;102952.22;;;2.57;68.69
69574;BME280;62840;52.366;5.980;2023-01-28T06:09:45;102962.78;;;2.57;68.81
69574;BME280;62840;52.366;5.980;2023-01-28T06:12:11;102962.78;;;2.55;68.81
69574;BME280;62840;52.366;5.980;2023-01-28T06:14:37;102964.53;;;2.57;68.51
69574;BME280;62840;52.366;5.980;2023-01-28T06:17:03;102955.78;;;2.56;68.47
69574;BME280;62840;52.366;5.980;2023-01-28T06:19:28;102961.91;;;2.58;68.54
69574;BME280;62840;52.366;5.980;2023-01-28T06:21:57;102954.00;;;2.58;68.52
69574;BME280;62840;52.366;5.980;2023-01-28T06:24:22;102959.22;;;2.60;68.30
69574;BME280;62840;52.366;5.980;2023-01-28T06:26:48;102953.09;;;2.59;68.54
69574;BME280;62840;52.366;5.980;2023-01-28T06:29:14;102947.81;;;2.59;68.44
69574;BME280;62840;52.366;5.980;2023-01-28T06:31:40;102956.63;;;2.58;68.33
69574;BME280;62840;52.366;5.980;2023-01-28T06:34:05;102963.63;;;2.58;68.68
69574;BME280;62840;52.366;5.980;2023-01-28T06:36:31;102968.03;;;2.57;68.52
69574;BME280;62840;52.366;5.980;2023-01-28T06:38:59;102965.47;;;2.54;68.68
69574;BME280;62840;52.366;5.980;2023-01-28T06:41:25;102957.56;;;2.54;68.44
69574;BME280;62840;52.366;5.980;2023-01-28T06:43:51;102963.69;;;2.53;68.54
69574;BME280;62840;52.366;5.980;2023-01-28T06:46:16;102973.38;;;2.51;68.39
69574;BME280;62840;52.366;5.980;2023-01-28T06:48:42;102977.78;;;2.52;68.42
69574;BME280;62840;52.366;5.980;2023-01-28T06:51:08;102989.19;;;2.51;68.70
69574;BME280;62840;52.366;5.980;2023-01-28T06:53:34;102985.69;;;2.50;68.56
69574;BME280;62840;52.366;5.980;2023-01-28T06:56:03;102993.59;;;2.52;68.34
69574;BME280;62840;52.366;5.980;2023-01-28T06:58:29;103001.50;;;2.50;68.76
69574;BME280;62840;52.366;5.980;2023-01-28T07:00:55;102998.88;;;2.49;68.43
69574;BME280;62840;52.366;5.980;2023-01-28T07:03:21;102995.41;;;2.47;68.91
69574;BME280;62840;52.366;5.980;2023-01-28T07:05:46;102993.59;;;2.49;68.74
69574;BME280;62840;52.366;5.980;2023-01-28T07:08:12;102998.88;;;2.49;68.68
69574;BME280;62840;52.366;5.980;2023-01-28T07:10:38;102991.88;;;2.49;68.52
69574;BME280;62840;52.366;5.980;2023-01-28T07:13:06;102984.81;;;2.50;68.74
69574;BME280;62840;52.366;5.980;2023-01-28T07:15:32;102981.28;;;2.51;68.73
69574;BME280;62840;52.366;5.980;2023-01-28T07:17:58;102983.13;;;2.47;68.32
69574;BME280;62840;52.366;5.980;2023-01-28T07:20:23;102996.25;;;2.49;68.43
69574;BME280;62840;52.366;5.980;2023-01-28T07:22:49;102996.25;;;2.49;68.58
69574;BME280;62840;52.366;5.980;2023-01-28T07:25:15;102993.59;;;2.49;68.51
69574;BME280;62840;52.366;5.980;2023-01-28T07:27:45;102998.00;;;2.48;68.45
69574;BME280;62840;52.366;5.980;2023-01-28T07:30:16;103004.19;;;2.47;68.26
69574;BME280;62840;52.366;5.980;2023-01-28T07:32:44;103013.88;;;2.42;68.36
69574;BME280;62840;52.366;5.980;2023-01-28T07:35:10;103014.78;;;2.43;68.17
69574;BME280;62840;52.366;5.980;2023-01-28T07:37:37;103020.91;;;2.42;68.48
69574;BME280;62840;52.366;5.980;2023-01-28T07:40:03;103032.38;;;2.41;68.46
69574;BME280;62840;52.366;5.980;2023-01-28T07:42:30;103034.09;;;2.42;68.51
69574;BME280;62840;52.366;5.980;2023-01-28T07:44:56;103025.31;;;2.43;68.69
69574;BME280;62840;52.366;5.980;2023-01-28T07:47:24;103030.59;;;2.43;68.82
69574;BME280;62840;52.366;5.980;2023-01-28T07:49:50;103032.31;;;2.44;68.79
69574;BME280;62840;52.366;5.980;2023-01-28T07:52:15;103035.81;;;2.46;68.61
69574;BME280;62840;52.366;5.980;2023-01-28T07:54:41;103031.44;;;2.45;68.43
69574;BME280;62840;52.366;5.980;2023-01-28T07:57:10;103026.19;;;2.43;68.62
69574;BME280;62840;52.366;5.980;2023-01-28T07:59:35;103035.84;;;2.41;68.23
69574;BME280;62840;52.366;5.980;2023-01-28T08:02:01;103039.34;;;2.42;68.29
69574;BME280;62840;52.366;5.980;2023-01-28T08:04:30;103036.72;;;2.42;68.27
69574;BME280;62840;52.366;5.980;2023-01-28T08:06:56;103041.13;;;2.43;68.33
69574;BME280;62840;52.366;5.980;2023-01-28T08:09:22;103034.94;;;2.44;68.30
69574;BME280;62840;52.366;5.980;2023-01-28T08:11:47;103046.34;;;2.46;68.48
69574;BME280;62840;52.366;5.980;2023-01-28T08:14:13;103034.06;;;2.45;68.07
69574;BME280;62840;52.366;5.980;2023-01-28T08:16:39;103034.94;;;2.44;68.20
69574;BME280;62840;52.366;5.980;2023-01-28T08:19:05;103046.38;;;2.43;67.94
69574;BME280;62840;52.366;5.980;2023-01-28T08:21:33;103049.88;;;2.42;68.25
69574;BME280;62840;52.366;5.980;2023-01-28T08:23:59;103051.66;;;2.43;68.14
69574;BME280;62840;52.366;5.980;2023-01-28T08:26:24;103051.66;;;2.40;68.16
69574;BME280;62840;52.366;5.980;2023-01-28T08:28:50;103044.69;;;2.39;68.03
69574;BME280;62840;52.366;5.980;2023-01-28T08:31:16;103042.09;;;2.34;67.79
69574;BME280;62840;52.366;5.980;2023-01-28T08:33:42;103033.34;;;2.32;68.12
69574;BME280;62840;52.366;5.980;2023-01-28T08:36:08;103035.13;;;2.30;68.47
69574;BME280;62840;52.366;5.980;2023-01-28T08:38:37;103036.03;;;2.27;68.27
69574;BME280;62840;52.366;5.980;2023-01-28T08:41:03;103037.88;;;2.22;68.49
69574;BME280;62840;52.366;5.980;2023-01-28T08:43:29;103035.28;;;2.18;68.38
69574;BME280;62840;52.366;5.980;2023-01-28T08:45:55;103034.44;;;2.14;68.53
69574;BME280;62840;52.366;5.980;2023-01-28T08:48:20;103032.72;;;2.13;68.91
69574;BME280;62840;52.366;5.980;2023-01-28T08:50:46;103046.75;;;2.12;68.64
69574;BME280;62840;52.366;5.980;2023-01-28T08:53:14;103055.50;;;2.14;68.80
69574;BME280;62840;52.366;5.980;2023-01-28T08:55:44;103059.00;;;2.16;69.01
69574;BME280;62840;52.366;5.980;2023-01-28T08:58:12;103069.47;;;2.19;68.82
69574;BME280;62840;52.366;5.980;2023-01-28T09:00:39;103069.47;;;2.22;68.81
69574;BME280;62840;52.366;5.980;2023-01-28T09:03:05;103077.31;;;2.24;68.87
69574;BME280;62840;52.366;5.980;2023-01-28T09:05:32;103075.53;;;2.26;68.91
69574;BME280;62840;52.366;5.980;2023-01-28T09:08:00;103073.75;;;2.29;69.01
69574;BME280;62840;52.366;5.980;2023-01-28T09:10:25;103075.47;;;2.33;69.05
69574;BME280;62840;52.366;5.980;2023-01-28T09:12:54;103067.53;;;2.37;69.21
69574;BME280;62840;52.366;5.980;2023-01-28T09:15:20;103068.38;;;2.37;69.17
69574;BME280;62840;52.366;5.980;2023-01-28T09:17:45;103085.03;;;2.41;69.04
69574;BME280;62840;52.366;5.980;2023-01-28T09:20:11;103083.22;;;2.44;68.64
69574;BME280;62840;52.366;5.980;2023-01-28T09:22:37;103076.09;;;2.51;68.65
69574;BME280;62840;52.366;5.980;2023-01-28T09:25:04;103088.34;;;2.55;68.51
69574;BME280;62840;52.366;5.980;2023-01-28T09:27:30;103085.69;;;2.58;68.17
69574;BME280;62840;52.366;5.980;2023-01-28T09:29:59;103086.53;;;2.60;67.93
69574;BME280;62840;52.366;5.980;2023-01-28T09:32:24;103087.38;;;2.64;68.10
69574;BME280;62840;52.366;5.980;2023-01-28T09:34:50;103091.72;;;2.66;67.99
69574;BME280;62840;52.366;5.980;2023-01-28T09:37:16;103103.06;;;2.71;68.28
69574;BME280;62840;52.366;5.980;2023-01-28T09:39:42;103107.44;;;2.74;67.98
69574;BME280;62840;52.366;5.980;2023-01-28T09:42:23;103107.41;;;2.75;67.75
69574;BME280;62840;52.366;5.980;2023-01-28T09:45:09;103111.81;;;2.75;67.82
69574;BME280;62840;52.366;5.980;2023-01-28T09:47:42;103100.41;;;2.74;68.16
69574;BME280;62840;52.366;5.980;2023-01-28T09:50:14;103105.66;;;2.74;68.08
69574;BME280;62840;52.366;5.980;2023-01-28T09:52:42;103104.81;;;2.74;68.20
69574;BME280;62840;52.366;5.980;2023-01-28T09:55:17;103103.88;;;2.77;68.05
69574;BME280;62840;52.366;5.980;2023-01-28T09:57:51;103112.59;;;2.82;68.05
69574;BME280;62840;52.366;5.980;2023-01-28T10:00:22;103117.81;;;2.86;67.99
69574;BME280;62840;52.366;5.980;2023-01-28T10:03:05;103108.97;;;2.89;67.81
69574;BME280;62840;52.366;5.980;2023-01-28T10:06:01;103112.41;;;2.94;67.96
69574;BME280;62840;52.366;5.980;2023-01-28T10:08:58;103114.16;;;2.95;67.53
69574;BME280;62840;52.366;5.980;2023-01-28T10:11:45;103113.31;;;2.94;67.51
69574;BME280;62840;52.366;5.980;2023-01-28T10:14:27;103115.91;;;2.96;67.10
69574;BME280;62840;52.366;5.980;2023-01-28T10:17:09;103113.25;;;2.97;67.36
69574;BME280;62840;52.366;5.980;2023-01-28T10:19:42;103110.50;;;3.05;67.44
69574;BME280;62840;52.366;5.980;2023-01-28T10:22:15;103098.13;;;3.10;67.73
69574;BME280;62840;52.366;5.980;2023-01-28T10:24:48;103105.13;;;3.14;67.14
69574;BME280;62840;52.366;5.980;2023-01-28T10:27:20;103105.91;;;3.18;67.47
69574;BME280;62840;52.366;5.980;2023-01-28T10:29:49;103101.47;;;3.22;67.42
69574;BME280;62840;52.366;5.980;2023-01-28T10:32:27;103098.78;;;3.23;67.51
69574;BME280;62840;52.366;5.980;2023-01-28T10:34:56;103099.69;;;3.24;67.44
69574;BME280;62840;52.366;5.980;2023-01-28T10:37:22;103095.28;;;3.26;67.25
69574;BME280;62840;52.366;5.980;2023-01-28T10:39:48;103097.06;;;3.24;66.92
69574;BME280;62840;52.366;5.980;2023-01-28T10:42:23;103089.09;;;3.25;67.34
69574;BME280;62840;52.366;5.980;2023-01-28T10:44:56;103085.59;;;3.25;66.90
69574;BME280;62840;52.366;5.980;2023-01-28T10:47:32;103086.50;;;3.24;67.00
69574;BME280;62840;52.366;5.980;2023-01-28T10:50:04;103081.25;;;3.24;67.26
69574;BME280;62840;52.366;5.980;2023-01-28T10:52:51;103085.66;;;3.22;67.25
69574;BME280;62840;52.366;5.980;2023-01-28T10:55:18;103071.63;;;3.20;67.56
69574;BME280;62840;52.366;5.980;2023-01-28T10:57:44;103062.81;;;3.21;67.34
69574;BME280;62840;52.366;5.980;2023-01-28T11:00:16;103044.34;;;3.22;67.23
69574;BME280;62840;52.366;5.980;2023-01-28T11:02:51;103035.50;;;3.23;67.41
69574;BME280;62840;52.366;5.980;2023-01-28T11:05:20;103022.31;;;3.25;67.46
69574;BME280;62840;52.366;5.980;2023-01-28T11:07:47;103022.31;;;3.25;67.13
69574;BME280;62840;52.366;5.980;2023-01-28T11:10:29;103023.16;;;3.27;67.21
69574;BME280;62840;52.366;5.980;2023-01-28T11:12:56;103003.84;;;3.26;67.35
69574;BME280;62840;52.366;5.980;2023-01-28T11:15:24;102994.09;;;3.30;67.28
69574;BME280;62840;52.366;5.980;2023-01-28T11:17:55;102995.78;;;3.34;67.28
69574;BME280;62840;52.366;5.980;2023-01-28T11:20:25;102980.81;;;3.36;67.08
69574;BME280;62840;52.366;5.980;2023-01-28T11:22:53;102996.63;;;3.37;66.90
69574;BME280;62840;52.366;5.980;2023-01-28T11:25:27;102989.56;;;3.36;66.91
69574;BME280;62840;52.366;5.980;2023-01-28T11:27:56;102980.81;;;3.36;67.03
69574;BME280;62840;52.366;5.980;2023-01-28T11:30:26;102974.66;;;3.37;66.79
69574;BME280;62840;52.366;5.980;2023-01-28T11:33:03;102976.31;;;3.41;66.95
69574;BME280;62840;52.366;5.980;2023-01-28T11:35:38;102967.50;;;3.42;66.81
69574;BME280;62840;52.366;5.980;2023-01-28T11:38:16;102962.22;;;3.44;66.79
69574;BME280;62840;52.366;5.980;2023-01-28T11:40:49;102969.25;;;3.43;66.47
69574;BME280;62840;52.366;5.980;2023-01-28T11:43:15;102969.25;;;3.43;66.72
69574;BME280;62840;52.366;5.980;2023-01-28T11:45:47;102979.75;;;3.46;66.63
69574;BME280;62840;52.366;5.980;2023-01-28T11:48:31;102973.56;;;3.47;66.66
69574;BME280;62840;52.366;5.980;2023-01-28T11:51:25;102976.19;;;3.47;66.88
69574;BME280;62840;52.366;5.980;2023-01-28T11:54:11;102984.97;;;3.48;66.49
69574;BME280;62840;52.366;5.980;2023-01-28T11:56:55;102999.91;;;3.50;66.77
69574;BME280;62840;52.366;5.980;2023-01-28T11:59:42;103006.00;;;3.52;66.78
69574;BME280;62840;52.366;5.980;2023-01-28T12:02:37;102990.13;;;3.55;66.76
69574;BME280;62840;52.366;5.980;2023-01-28T12:05:28;102997.97;;;3.60;66.45
69574;BME280;62840;52.366;5.980;2023-01-28T12:08:19;102996.16;;;3.62;66.23
69574;BME280;62840;52.366;5.980;2023-01-28T12:10:55;103000.59;;;3.62;66.41
69574;BME280;62840;52.366;5.980;2023-01-28T12:13:40;102996.97;;;3.66;66.48
69574;BME280;62840;52.366;5.980;2023-01-28T12:16:31;102998.72;;;3.67;66.47
69574;BME280;62840;52.366;5.980;2023-01-28T12:19:30;102993.38;;;3.70;66.45
69574;BME280;62840;52.366;5.980;2023-01-28T12:25:35;102988.91;;;3.73;66.63
69574;BME280;62840;52.366;5.980;2023-01-28T12:28:16;102986.22;;;3.75;66.41
69574;BME280;62840;52.366;5.980;2023-01-28T12:31:04;102985.28;;;3.79;66.22
69574;BME280;62840;52.366;5.980;2023-01-28T12:33:58;102987.88;;;3.82;66.20
69574;BME280;62840;52.366;5.980;2023-01-28T12:36:50;102982.53;;;3.85;66.23
69574;BME280;62840;52.366;5.980;2023-01-28T12:39:34;102987.78;;;3.85;66.20
69574;BME280;62840;52.366;5.980;2023-01-28T12:42:13;102986.84;;;3.88;66.30
69574;BME280;62840;52.366;5.980;2023-01-28T12:44:48;102974.47;;;3.91;65.82
69574;BME280;62840;52.366;5.980;2023-01-28T12:47:21;102971.78;;;3.94;66.11
69574;BME280;62840;52.366;5.980;2023-01-28T12:49:55;102958.50;;;3.97;65.96
69574;BME280;62840;52.366;5.980;2023-01-28T12:52:29;102955.81;;;4.00;66.05
69574;BME280;62840;52.366;5.980;2023-01-28T12:55:10;102948.66;;;4.06;66.21
69574;BME280;62840;52.366;5.980;2023-01-28T12:57:41;102932.72;;;4.09;66.44
69574;BME280;62840;52.366;5.980;2023-01-28T13:00:20;102923.81;;;4.16;66.30
69574;BME280;62840;52.366;5.980;2023-01-28T13:02:55;102914.00;;;4.19;66.25
69574;BME280;62840;52.366;5.980;2023-01-28T13:05:30;102905.13;;;4.24;65.65
69574;BME280;62840;52.366;5.980;2023-01-28T13:08:05;102910.28;;;4.30;66.11
69574;BME280;62840;52.366;5.980;2023-01-28T13:10:42;102902.25;;;4.34;66.11
69574;BME280;62840;52.366;5.980;2023-01-28T13:13:14;102893.34;;;4.38;66.08
69574;BME280;62840;52.366;5.980;2023-01-28T13:15:43;102886.19;;;4.42;66.13
69574;BME280;62840;52.366;5.980;2023-01-28T13:18:40;102886.09;;;4.47;65.84
69574;BME280;62840;52.366;5.980;2023-01-28T13:21:13;102894.00;;;4.48;66.07